Time;durP1;ratioP1;P1;durP2;ratioP2;P2;SDS_P1;SDS_P2;PMS_P1;PMS_P2;Temp;Humidity;BMP_temperature;BMP_pressure;BME280_temperature;BME280_humidity;BME280_pressure;Samples;Min_cycle;Max_cycle;Signal;HPM_P1;HPM_P2
2022/10/08 00:01:31;;;;;;;;;;;12.50;99.90;;;;;;5061247;28;19967;-68
2022/10/08 00:03:58;;;;;;;;;;;12.60;99.90;;;;;;5067266;28;19943;-67
2022/10/08 00:06:26;;;;;;;;;;;12.50;99.90;;;;;;5057991;28;19966;-67
2022/10/08 00:08:55;;;;;;;;;;;12.50;99.90;;;;;;5067069;28;19920;-66
2022/10/08 00:11:24;;;;;;;;;;;12.50;99.90;;;;;;5060215;28;19924;-69
2022/10/08 00:13:51;;;;;;;;;;;12.50;99.90;;;;;;5067188;28;19920;-67
2022/10/08 00:16:20;;;;;;;;;;;12.50;99.90;;;;;;5049005;28;20293;-68
2022/10/08 00:18:48;;;;;;;;;;;12.60;99.90;;;;;;5064798;28;19924;-68
2022/10/08 00:21:16;;;;;;;;;;;12.60;99.90;;;;;;5064957;28;19920;-68
2022/10/08 00:23:43;;;;;;;;;;;12.60;99.90;;;;;;5063853;28;20007;-67
2022/10/08 00:26:10;;;;;;;;;;;12.60;99.90;;;;;;5062549;28;20449;-71
2022/10/08 00:28:37;;;;;;;;;;;12.60;99.90;;;;;;5066958;28;19921;-68
2022/10/08 00:31:09;;;;;;;;;;;12.60;99.90;;;;;;5064478;28;19924;-68
2022/10/08 00:33:37;;;;;;;;;;;12.70;99.90;;;;;;5064550;28;20016;-66
2022/10/08 00:36:05;;;;;;;;;;;12.70;99.90;;;;;;5065436;28;19934;-66
2022/10/08 00:38:32;;;;;;;;;;;12.70;99.90;;;;;;5066044;28;20081;-66
2022/10/08 00:40:59;;;;;;;;;;;12.80;99.90;;;;;;5065961;28;19942;-66
2022/10/08 00:43:46;;;;;;;;;;;12.90;99.90;;;;;;5065529;28;19921;-66
2022/10/08 00:46:16;;;;;;;;;;;12.90;99.90;;;;;;5064378;28;19967;-67
2022/10/08 00:48:43;;;;;;;;;;;13.00;99.90;;;;;;5064258;28;19939;-68
2022/10/08 00:51:10;;;;;;;;;;;13.00;99.90;;;;;;5058607;28;19928;-67
2022/10/08 00:53:37;;;;;;;;;;;12.90;99.90;;;;;;5064022;28;19920;-66
2022/10/08 00:56:03;;;;;;;;;;;12.90;99.90;;;;;;5062247;28;20007;-66
2022/10/08 00:58:31;;;;;;;;;;;12.90;99.90;;;;;;5061631;28;19921;-67
2022/10/08 01:00:58;;;;;;;;;;;12.80;99.90;;;;;;5066319;28;19921;-66
2022/10/08 01:03:25;;;;;;;;;;;12.80;99.90;;;;;;5063177;28;20007;-66
2022/10/08 01:06:12;;;;;;;;;;;12.80;99.90;;;;;;5061535;28;19924;-68
2022/10/08 01:09:01;;;;;;;;;;;12.80;99.90;;;;;;5046777;28;19921;-67
2022/10/08 01:11:46;;;;;;;;;;;12.70;99.90;;;;;;5060692;28;19935;-66
2022/10/08 01:14:31;;;;;;;;;;;12.70;99.90;;;;;;5061805;28;19946;-68
2022/10/08 01:17:05;;;;;;;;;;;12.70;99.90;;;;;;5060034;28;19921;-70
2022/10/08 01:19:37;;;;;;;;;;;12.70;99.90;;;;;;5061564;28;19928;-70
2022/10/08 01:22:15;;;;;;;;;;;12.70;99.90;;;;;;5061060;28;20390;-66
2022/10/08 01:27:38;;;;;;;;;;;12.70;99.90;;;;;;5058361;28;21427;-68
2022/10/08 01:30:08;;;;;;;;;;;12.70;99.90;;;;;;5057891;28;20007;-67
2022/10/08 01:32:39;;;;;;;;;;;12.70;99.90;;;;;;5059874;28;19962;-66
2022/10/08 01:35:10;;;;;;;;;;;12.70;99.90;;;;;;5061356;28;19927;-66
2022/10/08 01:37:38;;;;;;;;;;;12.80;99.90;;;;;;5057913;28;20653;-67
2022/10/08 01:40:08;;;;;;;;;;;12.80;99.90;;;;;;5061919;28;19920;-68
2022/10/08 01:42:38;;;;;;;;;;;12.80;99.90;;;;;;5060554;28;19924;-69
2022/10/08 01:45:11;;;;;;;;;;;12.80;99.90;;;;;;5058857;28;20434;-66
2022/10/08 01:47:38;;;;;;;;;;;12.80;99.90;;;;;;5057164;28;19932;-68
2022/10/08 01:50:21;;;;;;;;;;;12.70;99.90;;;;;;5061083;28;19975;-67
2022/10/08 01:52:51;;;;;;;;;;;12.80;99.90;;;;;;5059595;28;19973;-68
2022/10/08 01:55:20;;;;;;;;;;;12.70;99.90;;;;;;5052925;28;19966;-71
2022/10/08 01:57:48;;;;;;;;;;;12.70;99.90;;;;;;5043586;28;20331;-66
2022/10/08 02:00:16;;;;;;;;;;;12.70;99.90;;;;;;5039362;28;19932;-67
2022/10/08 02:02:43;;;;;;;;;;;12.70;99.90;;;;;;5057665;28;19939;-68
2022/10/08 02:05:10;;;;;;;;;;;12.70;99.90;;;;;;5062529;28;19924;-67
2022/10/08 02:07:40;;;;;;;;;;;12.70;99.90;;;;;;5057122;28;20397;-67
2022/10/08 02:10:23;;;;;;;;;;;12.60;99.90;;;;;;5058998;28;19920;-68
2022/10/08 02:12:50;;;;;;;;;;;12.60;99.90;;;;;;5056762;28;20487;-66
2022/10/08 02:15:18;;;;;;;;;;;12.60;99.90;;;;;;5045950;28;20331;-67
2022/10/08 02:17:53;;;;;;;;;;;12.60;99.90;;;;;;5060379;28;19930;-66
2022/10/08 02:20:25;;;;;;;;;;;12.60;99.90;;;;;;5061122;28;19939;-69
2022/10/08 02:22:57;;;;;;;;;;;12.60;99.90;;;;;;5063670;28;19998;-66
2022/10/08 02:25:31;;;;;;;;;;;12.60;99.90;;;;;;5058995;28;19924;-67
2022/10/08 02:28:04;;;;;;;;;;;12.60;99.90;;;;;;5062084;28;20323;-66
2022/10/08 02:30:35;;;;;;;;;;;12.60;99.90;;;;;;5063619;28;19920;-67
2022/10/08 02:33:05;;;;;;;;;;;12.60;99.90;;;;;;5066577;28;20059;-67
2022/10/08 02:35:37;;;;;;;;;;;12.60;99.90;;;;;;5058501;28;19924;-66
2022/10/08 02:38:07;;;;;;;;;;;12.60;99.90;;;;;;5060653;28;19927;-67
2022/10/08 02:40:37;;;;;;;;;;;12.60;99.90;;;;;;5065120;28;19920;-69
2022/10/08 02:43:07;;;;;;;;;;;12.60;99.90;;;;;;5064610;28;19948;-66
2022/10/08 02:45:38;;;;;;;;;;;12.60;99.90;;;;;;5058508;28;20043;-67
2022/10/08 02:48:07;;;;;;;;;;;12.60;99.90;;;;;;5063280;28;19920;-66
2022/10/08 02:50:38;;;;;;;;;;;12.60;99.90;;;;;;5063907;28;20054;-66
2022/10/08 02:53:05;;;;;;;;;;;12.60;99.90;;;;;;5059680;28;19968;-66
2022/10/08 02:55:36;;;;;;;;;;;12.50;99.90;;;;;;5062823;28;19924;-70
2022/10/08 02:58:05;;;;;;;;;;;12.50;99.90;;;;;;5054005;28;20254;-65
2022/10/08 03:00:35;;;;;;;;;;;12.50;99.90;;;;;;5060360;28;19920;-66
2022/10/08 03:03:08;;;;;;;;;;;12.50;99.90;;;;;;5065059;28;19931;-70
2022/10/08 03:05:35;;;;;;;;;;;12.50;99.90;;;;;;5061475;28;19924;-70
2022/10/08 03:08:04;;;;;;;;;;;12.50;99.90;;;;;;5062699;28;20622;-68
2022/10/08 03:10:33;;;;;;;;;;;12.60;99.90;;;;;;5065380;28;20277;-68
2022/10/08 03:13:01;;;;;;;;;;;12.50;99.90;;;;;;5065140;28;19920;-69
2022/10/08 03:15:32;;;;;;;;;;;12.60;99.90;;;;;;5062114;28;19921;-69
2022/10/08 03:18:01;;;;;;;;;;;12.60;99.90;;;;;;5063678;28;20305;-68
2022/10/08 03:20:29;;;;;;;;;;;12.60;99.90;;;;;;5063429;28;19954;-69
2022/10/08 03:23:00;;;;;;;;;;;12.60;99.90;;;;;;5066765;28;19931;-68
2022/10/08 03:25:27;;;;;;;;;;;12.60;99.90;;;;;;5062453;28;19920;-67
2022/10/08 03:27:54;;;;;;;;;;;12.60;99.90;;;;;;5060476;28;19924;-69
2022/10/08 03:30:20;;;;;;;;;;;12.60;99.90;;;;;;5058804;28;20411;-66
2022/10/08 03:32:47;;;;;;;;;;;12.70;99.90;;;;;;5062138;28;20350;-72
2022/10/08 03:35:15;;;;;;;;;;;12.70;99.90;;;;;;5062135;28;19924;-68
2022/10/08 03:37:42;;;;;;;;;;;12.70;99.90;;;;;;5055014;28;20046;-68
2022/10/08 03:40:09;;;;;;;;;;;12.70;99.90;;;;;;5063354;28;19920;-67
2022/10/08 03:42:35;;;;;;;;;;;12.70;99.90;;;;;;5061995;28;20304;-71
2022/10/08 03:45:03;;;;;;;;;;;12.70;99.90;;;;;;5062731;28;19952;-71
2022/10/08 03:47:29;;;;;;;;;;;12.60;99.90;;;;;;5062503;28;19927;-66
2022/10/08 03:49:56;;;;;;;;;;;12.60;99.90;;;;;;5060754;28;19960;-66
2022/10/08 03:52:23;;;;;;;;;;;12.60;99.90;;;;;;5058014;28;19924;-68
2022/10/08 03:54:49;;;;;;;;;;;12.60;99.90;;;;;;5062260;28;19921;-70
2022/10/08 03:57:16;;;;;;;;;;;12.60;99.90;;;;;;5057730;28;19920;-66
2022/10/08 03:59:43;;;;;;;;;;;12.60;99.90;;;;;;5061653;28;19921;-68
2022/10/08 04:02:10;;;;;;;;;;;12.70;99.90;;;;;;5062790;28;19971;-66
2022/10/08 04:04:36;;;;;;;;;;;12.60;99.90;;;;;;5058646;28;20662;-66
2022/10/08 04:07:03;;;;;;;;;;;12.70;99.90;;;;;;5059695;28;19928;-68
2022/10/08 04:09:30;;;;;;;;;;;12.60;99.90;;;;;;5059608;28;19949;-66
2022/10/08 04:11:57;;;;;;;;;;;12.60;99.90;;;;;;5059867;28;20023;-68
2022/10/08 04:14:23;;;;;;;;;;;12.70;99.90;;;;;;5058261;28;19951;-66
2022/10/08 04:16:52;;;;;;;;;;;12.70;99.90;;;;;;5061495;28;19932;-66
2022/10/08 04:19:18;;;;;;;;;;;12.70;99.90;;;;;;5061933;28;20254;-70
2022/10/08 04:21:45;;;;;;;;;;;12.70;99.90;;;;;;5063002;28;19931;-66
2022/10/08 04:24:12;;;;;;;;;;;12.80;99.90;;;;;;5063678;28;20008;-66
2022/10/08 04:26:39;;;;;;;;;;;12.80;99.90;;;;;;5060567;28;19939;-70
2022/10/08 04:29:07;;;;;;;;;;;12.80;99.90;;;;;;5062670;28;19932;-66
2022/10/08 04:31:33;;;;;;;;;;;12.80;99.90;;;;;;5061392;28;19924;-67
2022/10/08 04:34:00;;;;;;;;;;;12.90;99.90;;;;;;5060482;28;20031;-70
2022/10/08 04:36:27;;;;;;;;;;;12.90;99.90;;;;;;5056541;28;20214;-66
2022/10/08 04:38:54;;;;;;;;;;;12.80;99.90;;;;;;5064652;28;20036;-71
2022/10/08 04:41:24;;;;;;;;;;;12.90;99.90;;;;;;5060797;28;19931;-72
2022/10/08 04:43:52;;;;;;;;;;;12.90;99.90;;;;;;5057532;28;19921;-68
2022/10/08 04:46:19;;;;;;;;;;;12.90;99.90;;;;;;5060004;28;19924;-71
2022/10/08 04:48:47;;;;;;;;;;;12.90;99.90;;;;;;5059706;28;19932;-73
2022/10/08 04:51:14;;;;;;;;;;;12.80;99.90;;;;;;5062631;28;19939;-67
2022/10/08 04:53:41;;;;;;;;;;;12.80;99.90;;;;;;5057724;28;20346;-66
2022/10/08 04:56:13;;;;;;;;;;;12.80;99.90;;;;;;5061481;28;19934;-67
2022/10/08 04:58:40;;;;;;;;;;;12.70;99.90;;;;;;5062797;28;19924;-66
2022/10/08 05:01:08;;;;;;;;;;;12.70;99.90;;;;;;5064261;28;19943;-66
2022/10/08 05:03:39;;;;;;;;;;;12.70;99.90;;;;;;5058489;28;19932;-67
2022/10/08 05:06:06;;;;;;;;;;;12.70;99.90;;;;;;5059833;28;19931;-67
2022/10/08 05:08:33;;;;;;;;;;;12.70;99.90;;;;;;5064161;28;20369;-66
2022/10/08 05:11:00;;;;;;;;;;;12.80;99.90;;;;;;5059927;28;20259;-67
2022/10/08 05:13:27;;;;;;;;;;;12.80;99.90;;;;;;5062580;28;19948;-68
2022/10/08 05:15:53;;;;;;;;;;;12.80;99.90;;;;;;5056104;28;19931;-67
2022/10/08 05:18:21;;;;;;;;;;;12.90;99.90;;;;;;5062155;28;20019;-69
2022/10/08 05:20:48;;;;;;;;;;;12.90;99.90;;;;;;5058755;28;19944;-67
2022/10/08 05:23:15;;;;;;;;;;;12.90;99.90;;;;;;5059901;28;19921;-66
2022/10/08 05:25:41;;;;;;;;;;;12.90;99.90;;;;;;5058762;28;20534;-67
2022/10/08 05:28:08;;;;;;;;;;;12.90;99.90;;;;;;5063592;28;20030;-69
2022/10/08 05:30:35;;;;;;;;;;;12.90;99.90;;;;;;5058077;28;19925;-66
2022/10/08 05:33:02;;;;;;;;;;;12.90;99.90;;;;;;5059965;28;20023;-67
2022/10/08 05:35:29;;;;;;;;;;;13.00;99.90;;;;;;5058510;28;19924;-68
2022/10/08 05:37:56;;;;;;;;;;;13.00;99.90;;;;;;5060212;28;19920;-66
2022/10/08 05:40:23;;;;;;;;;;;13.00;99.90;;;;;;5060292;28;20001;-67
2022/10/08 05:42:50;;;;;;;;;;;13.00;99.90;;;;;;5059176;28;19925;-67
2022/10/08 05:45:16;;;;;;;;;;;12.90;99.90;;;;;;5057549;28;20007;-70
2022/10/08 05:47:45;;;;;;;;;;;12.90;99.90;;;;;;5056756;28;20461;-67
2022/10/08 05:50:12;;;;;;;;;;;12.90;99.90;;;;;;5061856;28;19932;-66
2022/10/08 05:52:39;;;;;;;;;;;12.90;99.90;;;;;;5054433;28;19920;-67
2022/10/08 05:55:06;;;;;;;;;;;12.90;99.90;;;;;;5060809;28;20017;-69
2022/10/08 05:57:32;;;;;;;;;;;12.80;99.90;;;;;;5062101;28;20308;-69
2022/10/08 05:59:59;;;;;;;;;;;12.80;99.90;;;;;;5064942;28;20403;-69
2022/10/08 06:02:26;;;;;;;;;;;12.80;99.90;;;;;;5048846;28;20192;-69
2022/10/08 06:04:53;;;;;;;;;;;12.80;99.90;;;;;;5065002;28;19964;-66
2022/10/08 06:07:20;;;;;;;;;;;12.80;99.90;;;;;;5060990;28;19924;-72
2022/10/08 06:09:46;;;;;;;;;;;12.80;99.90;;;;;;5066507;28;19926;-69
2022/10/08 06:12:13;;;;;;;;;;;12.90;99.90;;;;;;5060109;28;19920;-67
2022/10/08 06:14:40;;;;;;;;;;;12.80;99.90;;;;;;5062701;28;19924;-66
2022/10/08 06:17:07;;;;;;;;;;;12.80;99.90;;;;;;5060343;28;19920;-66
2022/10/08 06:19:35;;;;;;;;;;;12.80;99.90;;;;;;5061459;28;20016;-72
2022/10/08 06:22:03;;;;;;;;;;;12.80;99.90;;;;;;5063530;28;19929;-67
2022/10/08 06:24:30;;;;;;;;;;;12.90;99.90;;;;;;5066202;28;20353;-67
2022/10/08 06:26:57;;;;;;;;;;;12.90;99.90;;;;;;5066064;28;19928;-70
2022/10/08 06:29:24;;;;;;;;;;;12.90;99.90;;;;;;5044496;28;19962;-67
2022/10/08 06:31:51;;;;;;;;;;;12.90;99.90;;;;;;5064137;28;19929;-68
2022/10/08 06:34:18;;;;;;;;;;;12.90;99.90;;;;;;5064858;28;19925;-69
2022/10/08 06:36:44;;;;;;;;;;;12.90;99.90;;;;;;5066810;28;19938;-66
2022/10/08 06:39:13;;;;;;;;;;;12.90;99.90;;;;;;5063753;28;19959;-67
2022/10/08 06:41:40;;;;;;;;;;;12.90;99.90;;;;;;5063915;28;20031;-68
2022/10/08 06:44:09;;;;;;;;;;;13.00;99.90;;;;;;5061444;28;20352;-67
2022/10/08 06:46:36;;;;;;;;;;;13.00;99.90;;;;;;5064798;28;19935;-68
2022/10/08 06:49:04;;;;;;;;;;;13.10;99.90;;;;;;5063531;28;19975;-68
2022/10/08 06:51:32;;;;;;;;;;;13.10;99.90;;;;;;5059307;28;19920;-66
2022/10/08 06:53:59;;;;;;;;;;;13.20;99.90;;;;;;5061332;28;19928;-66
2022/10/08 06:56:34;;;;;;;;;;;13.20;99.90;;;;;;5064723;28;19990;-66
2022/10/08 06:59:01;;;;;;;;;;;13.20;99.90;;;;;;5062846;28;19921;-72
2022/10/08 07:01:28;;;;;;;;;;;13.20;99.90;;;;;;5062272;28;19920;-67
2022/10/08 07:03:59;;;;;;;;;;;13.20;99.90;;;;;;5060455;28;21788;-66
2022/10/08 07:06:27;;;;;;;;;;;13.20;99.90;;;;;;5057513;28;20023;-72
2022/10/08 07:08:54;;;;;;;;;;;13.20;99.90;;;;;;5066628;28;19956;-67
2022/10/08 07:11:22;;;;;;;;;;;13.30;99.90;;;;;;5062302;28;19924;-68
2022/10/08 07:13:48;;;;;;;;;;;13.40;99.90;;;;;;5064707;28;20010;-69
2022/10/08 07:16:16;;;;;;;;;;;13.50;99.90;;;;;;5065700;28;19990;-66
2022/10/08 07:18:48;;;;;;;;;;;13.50;99.90;;;;;;5065123;28;19930;-66
2022/10/08 07:21:15;;;;;;;;;;;13.60;99.90;;;;;;5063119;28;19947;-68
2022/10/08 07:23:42;;;;;;;;;;;13.60;99.90;;;;;;5061629;28;20420;-67
2022/10/08 07:26:13;;;;;;;;;;;13.60;99.90;;;;;;5063263;28;19924;-66
2022/10/08 07:28:47;;;;;;;;;;;13.60;99.90;;;;;;5046974;28;19975;-66
2022/10/08 07:31:14;;;;;;;;;;;13.70;99.90;;;;;;5058995;28;19978;-67
2022/10/08 07:33:41;;;;;;;;;;;13.70;99.90;;;;;;5061896;28;20410;-70
2022/10/08 07:36:10;;;;;;;;;;;13.60;99.90;;;;;;5062624;28;19924;-66
2022/10/08 07:38:37;;;;;;;;;;;13.60;99.90;;;;;;5060860;28;20298;-73
2022/10/08 07:41:04;;;;;;;;;;;13.70;99.90;;;;;;5061725;28;19927;-69
2022/10/08 07:43:31;;;;;;;;;;;13.70;99.90;;;;;;5059829;28;19920;-69
2022/10/08 07:45:58;;;;;;;;;;;13.70;99.90;;;;;;5065240;28;20234;-66
2022/10/08 07:48:26;;;;;;;;;;;13.70;99.90;;;;;;5063426;28;19924;-67
2022/10/08 07:51:09;;;;;;;;;;;13.80;99.90;;;;;;5060831;28;19931;-66
2022/10/08 07:53:36;;;;;;;;;;;13.80;99.90;;;;;;5062359;28;19928;-66
2022/10/08 07:56:04;;;;;;;;;;;13.70;99.90;;;;;;5060532;28;19920;-69
2022/10/08 07:58:30;;;;;;;;;;;13.70;99.90;;;;;;5063274;28;20275;-68
2022/10/08 08:00:58;;;;;;;;;;;13.70;99.90;;;;;;5060952;28;19927;-67
2022/10/08 08:03:25;;;;;;;;;;;13.70;99.90;;;;;;5060460;28;20000;-67
2022/10/08 08:05:53;;;;;;;;;;;13.60;99.90;;;;;;5063657;28;20033;-67
2022/10/08 08:08:22;;;;;;;;;;;13.50;99.90;;;;;;5062888;28;19928;-68
2022/10/08 08:10:54;;;;;;;;;;;13.50;99.90;;;;;;5061024;28;19921;-73
2022/10/08 08:13:21;;;;;;;;;;;13.50;99.90;;;;;;5061742;28;19928;-72
2022/10/08 08:15:54;;;;;;;;;;;13.40;99.90;;;;;;5045997;28;20333;-67
2022/10/08 08:18:21;;;;;;;;;;;13.40;99.90;;;;;;5057766;28;20367;-70
2022/10/08 08:20:48;;;;;;;;;;;13.40;99.90;;;;;;5059625;28;19929;-67
2022/10/08 08:23:14;;;;;;;;;;;13.40;99.90;;;;;;5062265;28;20382;-67
2022/10/08 08:25:43;;;;;;;;;;;13.40;99.90;;;;;;5060579;28;19921;-68
2022/10/08 08:28:10;;;;;;;;;;;13.40;99.90;;;;;;5062483;28;20015;-70
2022/10/08 08:30:37;;;;;;;;;;;13.50;99.90;;;;;;5062640;28;19928;-66
2022/10/08 08:33:04;;;;;;;;;;;13.50;99.90;;;;;;5062974;28;19924;-66
2022/10/08 08:35:30;;;;;;;;;;;13.60;99.90;;;;;;5057362;28;19952;-70
2022/10/08 08:37:57;;;;;;;;;;;13.50;99.90;;;;;;5059418;28;19934;-70
2022/10/08 08:40:26;;;;;;;;;;;13.50;99.90;;;;;;5061547;28;19934;-68
2022/10/08 08:42:54;;;;;;;;;;;13.50;99.90;;;;;;5061830;28;19995;-72
2022/10/08 08:45:28;;;;;;;;;;;13.40;99.90;;;;;;5057716;28;19942;-69
2022/10/08 08:48:20;;;;;;;;;;;13.40;99.90;;;;;;5063264;28;20289;-69
2022/10/08 08:50:49;;;;;;;;;;;13.40;99.90;;;;;;5063000;28;19924;-66
2022/10/08 08:53:17;;;;;;;;;;;13.40;99.90;;;;;;5055772;28;20287;-69
2022/10/08 08:55:45;;;;;;;;;;;13.40;99.90;;;;;;5063829;28;19931;-71
2022/10/08 08:58:32;;;;;;;;;;;13.40;99.90;;;;;;5060381;28;19978;-68
2022/10/08 09:01:05;;;;;;;;;;;13.50;99.90;;;;;;5061052;28;19924;-67
2022/10/08 09:03:33;;;;;;;;;;;13.70;99.90;;;;;;5058383;28;19966;-69
2022/10/08 09:06:04;;;;;;;;;;;13.70;99.90;;;;;;5058587;28;20055;-66
2022/10/08 09:08:36;;;;;;;;;;;13.80;99.90;;;;;;5061834;28;19920;-68
2022/10/08 09:11:03;;;;;;;;;;;13.80;99.90;;;;;;5059897;28;20440;-68
2022/10/08 09:13:30;;;;;;;;;;;13.70;99.90;;;;;;5062137;28;19928;-71
2022/10/08 09:15:57;;;;;;;;;;;13.80;99.90;;;;;;5063342;28;19955;-67
2022/10/08 09:18:24;;;;;;;;;;;13.80;99.90;;;;;;5064087;28;19931;-69
2022/10/08 09:20:51;;;;;;;;;;;13.80;99.90;;;;;;5061834;28;20609;-67
2022/10/08 09:23:19;;;;;;;;;;;13.80;99.90;;;;;;5057789;28;19935;-71
2022/10/08 09:25:52;;;;;;;;;;;13.80;99.90;;;;;;5063445;28;20325;-66
2022/10/08 09:28:39;;;;;;;;;;;13.80;99.90;;;;;;5057261;28;20269;-71
2022/10/08 09:31:24;;;;;;;;;;;13.80;99.90;;;;;;5062340;28;19931;-66
2022/10/08 09:33:55;;;;;;;;;;;13.70;99.90;;;;;;5055641;28;19989;-67
2022/10/08 09:36:48;;;;;;;;;;;13.70;99.90;;;;;;5060636;28;20269;-71
2022/10/08 09:39:16;;;;;;;;;;;13.80;99.90;;;;;;5033006;28;19920;-67
2022/10/08 09:41:44;;;;;;;;;;;13.70;99.90;;;;;;5062862;28;19920;-68
2022/10/08 09:44:21;;;;;;;;;;;13.80;99.90;;;;;;5066251;28;19921;-71
2022/10/08 09:47:02;;;;;;;;;;;13.80;99.90;;;;;;5060892;28;19986;-71
2022/10/08 09:49:30;;;;;;;;;;;14.00;99.90;;;;;;5063179;28;19931;-67
2022/10/08 09:52:12;;;;;;;;;;;14.10;99.90;;;;;;5064885;28;20688;-71
2022/10/08 09:54:47;;;;;;;;;;;14.20;99.90;;;;;;5045301;28;20033;-67
2022/10/08 09:57:18;;;;;;;;;;;14.20;99.90;;;;;;5033938;28;19967;-67
2022/10/08 09:59:50;;;;;;;;;;;14.40;99.90;;;;;;5065020;28;19921;-70
2022/10/08 10:02:37;;;;;;;;;;;14.50;99.90;;;;;;5065685;28;19924;-71
2022/10/08 10:05:16;;;;;;;;;;;14.50;99.90;;;;;;5058101;28;19924;-72
2022/10/08 10:07:44;;;;;;;;;;;14.50;99.90;;;;;;5057714;28;20007;-67
2022/10/08 10:10:15;;;;;;;;;;;14.30;99.90;;;;;;5061068;28;19936;-67
2022/10/08 10:12:42;;;;;;;;;;;14.30;99.90;;;;;;5057661;28;19949;-68
2022/10/08 10:15:20;;;;;;;;;;;14.20;99.90;;;;;;5066347;28;19928;-67
2022/10/08 10:17:47;;;;;;;;;;;14.20;99.90;;;;;;5062759;28;20289;-67
2022/10/08 10:20:17;;;;;;;;;;;14.20;99.90;;;;;;5064389;28;20014;-67
2022/10/08 10:23:02;;;;;;;;;;;14.20;99.90;;;;;;5049631;28;20023;-67
2022/10/08 10:25:52;;;;;;;;;;;14.30;99.90;;;;;;5064055;28;20368;-67
2022/10/08 10:28:43;;;;;;;;;;;14.40;99.90;;;;;;5051875;28;19921;-67
2022/10/08 10:31:17;;;;;;;;;;;14.40;99.90;;;;;;5059780;28;19932;-66
2022/10/08 10:33:53;;;;;;;;;;;14.40;99.90;;;;;;5064029;28;19921;-67
2022/10/08 10:36:20;;;;;;;;;;;14.40;99.90;;;;;;5064375;28;19928;-68
2022/10/08 10:38:52;;;;;;;;;;;14.40;99.90;;;;;;5065714;28;20035;-66
2022/10/08 10:41:29;;;;;;;;;;;14.50;99.90;;;;;;5058259;28;19920;-68
2022/10/08 10:44:01;;;;;;;;;;;14.60;99.90;;;;;;5062726;28;20443;-72
2022/10/08 10:46:37;;;;;;;;;;;14.60;99.90;;;;;;5062078;28;19936;-67
2022/10/08 10:49:15;;;;;;;;;;;14.60;99.90;;;;;;5063602;28;20237;-67
2022/10/08 10:52:02;;;;;;;;;;;14.60;99.90;;;;;;5061536;28;20014;-68
2022/10/08 10:54:50;;;;;;;;;;;14.50;99.90;;;;;;5022561;28;20038;-67
2022/10/08 10:57:22;;;;;;;;;;;14.50;99.90;;;;;;5062465;28;20253;-66
2022/10/08 10:59:58;;;;;;;;;;;14.40;99.90;;;;;;5066041;28;19934;-70
2022/10/08 11:02:33;;;;;;;;;;;14.40;99.90;;;;;;5063556;28;19927;-67
2022/10/08 11:05:18;;;;;;;;;;;14.30;99.90;;;;;;5059734;28;19921;-67
2022/10/08 11:08:04;;;;;;;;;;;14.40;99.90;;;;;;5060819;28;19931;-67
2022/10/08 11:10:49;;;;;;;;;;;14.60;99.90;;;;;;5065203;28;19991;-68
2022/10/08 11:13:28;;;;;;;;;;;14.60;99.90;;;;;;5062642;28;20012;-67
2022/10/08 11:16:04;;;;;;;;;;;14.70;99.90;;;;;;5064054;28;19920;-66
2022/10/08 11:18:51;;;;;;;;;;;14.70;99.90;;;;;;5064548;28;19921;-67
2022/10/08 11:21:24;;;;;;;;;;;14.60;99.90;;;;;;5061245;28;19928;-67
2022/10/08 11:23:54;;;;;;;;;;;14.60;99.90;;;;;;5065312;28;20782;-66
2022/10/08 11:26:24;;;;;;;;;;;14.40;99.90;;;;;;5065100;28;19927;-67
2022/10/08 11:29:01;;;;;;;;;;;14.40;99.90;;;;;;5062493;28;20461;-67
2022/10/08 11:31:35;;;;;;;;;;;14.50;99.90;;;;;;5060638;28;19924;-67
2022/10/08 11:34:02;;;;;;;;;;;14.50;99.90;;;;;;5061417;28;19920;-68
2022/10/08 11:36:36;;;;;;;;;;;14.50;99.90;;;;;;5062981;28;19930;-67
2022/10/08 11:39:18;;;;;;;;;;;14.50;99.90;;;;;;5061738;28;19928;-69
2022/10/08 11:41:52;;;;;;;;;;;14.60;99.90;;;;;;5063741;28;20023;-66
2022/10/08 11:44:20;;;;;;;;;;;14.70;99.90;;;;;;5061436;28;19952;-69
2022/10/08 11:46:47;;;;;;;;;;;14.70;99.90;;;;;;5066643;28;19925;-65
2022/10/08 11:49:13;;;;;;;;;;;14.80;99.90;;;;;;5059330;28;19943;-67
2022/10/08 11:51:44;;;;;;;;;;;14.60;99.90;;;;;;5057526;28;19928;-66
2022/10/08 11:54:27;;;;;;;;;;;14.70;99.90;;;;;;5062768;28;19943;-67
2022/10/08 11:57:16;;;;;;;;;;;14.60;99.90;;;;;;5059276;28;20329;-67
2022/10/08 11:59:45;;;;;;;;;;;14.60;99.90;;;;;;5058750;28;19927;-67
2022/10/08 12:02:23;;;;;;;;;;;14.50;99.90;;;;;;5059523;28;19944;-67
2022/10/08 12:04:51;;;;;;;;;;;14.50;99.90;;;;;;5063189;28;19934;-69
2022/10/08 12:07:17;;;;;;;;;;;14.40;99.90;;;;;;5058891;28;19924;-68
2022/10/08 12:10:16;;;;;;;;;;;14.40;99.90;;;;;;5064614;28;19924;-67
2022/10/08 12:12:49;;;;;;;;;;;14.30;99.90;;;;;;5005963;28;19927;-68
2022/10/08 12:15:22;;;;;;;;;;;14.40;99.90;;;;;;5054394;28;20000;-71
2022/10/08 12:17:55;;;;;;;;;;;14.40;99.90;;;;;;5062860;28;19945;-68
2022/10/08 12:20:22;;;;;;;;;;;14.30;99.90;;;;;;5061499;28;19954;-68
2022/10/08 12:23:11;;;;;;;;;;;14.30;99.90;;;;;;5057802;28;19940;-67
2022/10/08 12:25:38;;;;;;;;;;;14.20;99.90;;;;;;5043140;28;19921;-67
2022/10/08 12:28:20;;;;;;;;;;;14.20;99.90;;;;;;5062532;28;19932;-71
2022/10/08 12:30:51;;;;;;;;;;;14.30;99.90;;;;;;5059907;28;20007;-69
2022/10/08 12:33:18;;;;;;;;;;;14.30;99.90;;;;;;5061076;28;19928;-73
2022/10/08 12:35:57;;;;;;;;;;;14.40;99.90;;;;;;5058813;28;19956;-67
2022/10/08 12:38:30;;;;;;;;;;;14.40;99.90;;;;;;5064365;28;19924;-68
2022/10/08 12:40:59;;;;;;;;;;;14.50;99.90;;;;;;5058928;28;19960;-68
2022/10/08 12:43:33;;;;;;;;;;;14.50;99.90;;;;;;5061247;28;19920;-66
2022/10/08 12:46:16;;;;;;;;;;;14.60;99.90;;;;;;5060517;28;20385;-67
2022/10/08 12:48:58;;;;;;;;;;;14.60;99.90;;;;;;5041779;28;19951;-70
2022/10/08 12:51:31;;;;;;;;;;;14.60;99.90;;;;;;5038290;28;19920;-68
2022/10/08 12:53:58;;;;;;;;;;;14.60;99.90;;;;;;5057214;28;19943;-67
2022/10/08 12:56:26;;;;;;;;;;;14.70;99.90;;;;;;5061628;28;19927;-70
2022/10/08 12:58:55;;;;;;;;;;;14.70;99.90;;;;;;5064675;28;20011;-66
2022/10/08 13:01:22;;;;;;;;;;;14.80;99.90;;;;;;5059111;28;19999;-68
2022/10/08 13:04:08;;;;;;;;;;;14.90;99.90;;;;;;5065485;28;20003;-66
2022/10/08 13:06:35;;;;;;;;;;;15.00;99.90;;;;;;5064603;28;19928;-67
2022/10/08 13:09:11;;;;;;;;;;;15.00;99.90;;;;;;5060470;28;19924;-67
2022/10/08 13:11:38;;;;;;;;;;;15.00;99.90;;;;;;5062492;28;19943;-66
2022/10/08 13:14:20;;;;;;;;;;;15.00;99.90;;;;;;5059861;28;20301;-68
2022/10/08 13:16:47;;;;;;;;;;;15.00;99.90;;;;;;5060992;28;19952;-66
2022/10/08 13:19:18;;;;;;;;;;;15.00;99.90;;;;;;5063975;28;19920;-68
2022/10/08 13:21:55;;;;;;;;;;;14.90;99.90;;;;;;5056740;28;19920;-67
2022/10/08 13:24:24;;;;;;;;;;;14.90;99.90;;;;;;5056893;28;20047;-69
2022/10/08 13:26:51;;;;;;;;;;;14.90;99.90;;;;;;5044881;28;19920;-67
2022/10/08 13:29:25;;;;;;;;;;;14.90;99.90;;;;;;5058982;28;19935;-69
2022/10/08 13:32:10;;;;;;;;;;;14.80;99.90;;;;;;5065144;28;19927;-66
2022/10/08 13:34:37;;;;;;;;;;;14.90;99.90;;;;;;5065511;28;19936;-67
2022/10/08 13:37:05;;;;;;;;;;;14.90;99.90;;;;;;5063018;28;20035;-66
2022/10/08 13:39:33;;;;;;;;;;;14.90;99.90;;;;;;5063746;28;19920;-66
2022/10/08 13:42:01;;;;;;;;;;;15.00;99.90;;;;;;5062083;28;19962;-69
2022/10/08 13:44:28;;;;;;;;;;;15.10;99.90;;;;;;5062059;28;19946;-67
2022/10/08 13:46:55;;;;;;;;;;;15.00;99.90;;;;;;5062021;28;20274;-71
2022/10/08 13:49:28;;;;;;;;;;;15.00;99.90;;;;;;5060457;28;19930;-67
2022/10/08 13:51:57;;;;;;;;;;;15.10;99.90;;;;;;5064921;28;19920;-66
2022/10/08 13:54:25;;;;;;;;;;;15.10;99.90;;;;;;5056102;28;20246;-67
2022/10/08 13:56:52;;;;;;;;;;;15.30;99.90;;;;;;5061685;28;19921;-67
2022/10/08 13:59:19;;;;;;;;;;;15.20;99.90;;;;;;5063978;28;19920;-67
2022/10/08 14:01:46;;;;;;;;;;;15.20;99.90;;;;;;5062027;28;19921;-67
2022/10/08 14:04:13;;;;;;;;;;;15.30;99.90;;;;;;5063103;28;19920;-66
2022/10/08 14:06:41;;;;;;;;;;;15.30;99.90;;;;;;5060796;28;19926;-68
2022/10/08 14:09:12;;;;;;;;;;;15.30;99.90;;;;;;5057568;28;20015;-67
2022/10/08 14:11:40;;;;;;;;;;;15.30;99.90;;;;;;5062653;28;19974;-68
2022/10/08 14:14:09;;;;;;;;;;;15.40;99.90;;;;;;5066089;28;19925;-67
2022/10/08 14:16:36;;;;;;;;;;;15.50;99.90;;;;;;5060697;28;19927;-69
2022/10/08 14:19:03;;;;;;;;;;;15.50;99.90;;;;;;5063077;28;19935;-69
2022/10/08 14:21:36;;;;;;;;;;;15.40;99.90;;;;;;5066435;28;21627;-70
2022/10/08 14:24:03;;;;;;;;;;;15.40;99.90;;;;;;5066784;28;19924;-66
2022/10/08 14:26:30;;;;;;;;;;;15.40;99.90;;;;;;5061330;28;19942;-67
2022/10/08 14:28:59;;;;;;;;;;;15.30;99.90;;;;;;5065284;28;20351;-69
2022/10/08 14:31:29;;;;;;;;;;;15.20;99.90;;;;;;5062679;28;20574;-67
2022/10/08 14:33:56;;;;;;;;;;;15.20;99.90;;;;;;5059500;28;19931;-66
2022/10/08 14:36:25;;;;;;;;;;;15.20;99.90;;;;;;5064818;28;20414;-67
2022/10/08 14:38:52;;;;;;;;;;;15.20;99.90;;;;;;5068379;28;19931;-66